sensor_id;sensor_type;location;lat;lon;timestamp;pressure;altitude;pressure_sealevel;temperature;humidity
2339;BME280;1180;51.438;6.978;2024-01-06T00:02:14;98932.56;;;9.98;95.49
2339;BME280;1180;51.438;6.978;2024-01-06T00:04:39;98931.75;;;9.97;95.51
2339;BME280;1180;51.438;6.978;2024-01-06T00:07:05;98938.97;;;10.04;95.67
2339;BME280;1180;51.438;6.978;2024-01-06T00:09:30;98938.13;;;10.03;94.71
2339;BME280;1180;51.438;6.978;2024-01-06T00:11:56;98940.38;;;9.96;94.85
2339;BME280;1180;51.438;6.978;2024-01-06T00:14:21;98936.41;;;9.92;95.07
2339;BME280;1180;51.438;6.978;2024-01-06T00:16:46;98933.97;;;9.91;95.55
2339;BME280;1180;51.438;6.978;2024-01-06T00:19:12;98946.06;;;10.00;95.29
2339;BME280;1180;51.438;6.978;2024-01-06T00:21:37;98943.16;;;10.05;94.91
2339;BME280;1180;51.438;6.978;2024-01-06T00:24:02;98953.50;;;10.03;94.75
2339;BME280;1180;51.438;6.978;2024-01-06T00:26:28;98950.59;;;10.08;94.19
2339;BME280;1180;51.438;6.978;2024-01-06T00:28:54;98948.28;;;10.05;94.31
2339;BME280;1180;51.438;6.978;2024-01-06T00:31:19;98958.09;;;10.00;94.86
2339;BME280;1180;51.438;6.978;2024-01-06T00:33:45;98955.06;;;9.94;94.89
2339;BME280;1180;51.438;6.978;2024-01-06T00:36:10;98959.03;;;9.99;95.08
2339;BME280;1180;51.438;6.978;2024-01-06T00:38:35;98964.16;;;9.99;95.05
2339;BME280;1180;51.438;6.978;2024-01-06T00:41:04;98968.34;;;10.00;94.89
2339;BME280;1180;51.438;6.978;2024-01-06T00:43:29;98967.63;;;9.97;95.54
2339;BME280;1180;51.438;6.978;2024-01-06T00:45:54;98975.09;;;10.01;94.70
2339;BME280;1180;51.438;6.978;2024-01-06T00:48:20;98967.50;;;9.99;94.91
2339;BME280;1180;51.438;6.978;2024-01-06T00:50:45;98975.56;;;9.94;95.05
2339;BME280;1180;51.438;6.978;2024-01-06T00:53:12;98970.31;;;9.96;95.30
2339;BME280;1180;51.438;6.978;2024-01-06T00:55:37;98977.41;;;9.92;95.31
2339;BME280;1180;51.438;6.978;2024-01-06T00:58:03;98975.91;;;9.90;95.39
2339;BME280;1180;51.438;6.978;2024-01-06T01:00:28;98972.88;;;9.96;95.16
2339;BME280;1180;51.438;6.978;2024-01-06T01:02:53;98986.13;;;10.01;94.83
2339;BME280;1180;51.438;6.978;2024-01-06T01:05:19;98975.88;;;10.01;95.08
2339;BME280;1180;51.438;6.978;2024-01-06T01:07:44;98975.78;;;10.03;94.62
2339;BME280;1180;51.438;6.978;2024-01-06T01:10:10;98975.19;;;9.99;94.35
2339;BME280;1180;51.438;6.978;2024-01-06T01:12:35;98974.72;;;10.05;94.35
2339;BME280;1180;51.438;6.978;2024-01-06T01:15:01;98974.84;;;10.04;94.27
2339;BME280;1180;51.438;6.978;2024-01-06T01:17:27;98979.84;;;10.05;94.26
2339;BME280;1180;51.438;6.978;2024-01-06T01:19:52;98981.38;;;9.96;94.54
2339;BME280;1180;51.438;6.978;2024-01-06T01:22:18;98976.13;;;9.98;94.40
2339;BME280;1180;51.438;6.978;2024-01-06T01:24:43;98985.34;;;10.01;94.33
2339;BME280;1180;51.438;6.978;2024-01-06T01:27:09;98985.19;;;10.02;94.19
2339;BME280;1180;51.438;6.978;2024-01-06T01:29:34;98989.19;;;9.95;94.77
2339;BME280;1180;51.438;6.978;2024-01-06T01:32:00;98989.28;;;10.05;94.64
2339;BME280;1180;51.438;6.978;2024-01-06T01:34:25;98994.28;;;10.06;94.16
2339;BME280;1180;51.438;6.978;2024-01-06T01:36:50;98999.78;;;10.02;94.00
2339;BME280;1180;51.438;6.978;2024-01-06T01:39:17;99001.41;;;10.03;94.54
2339;BME280;1180;51.438;6.978;2024-01-06T01:41:42;99013.53;;;10.01;94.19
2339;BME280;1180;51.438;6.978;2024-01-06T01:44:08;99019.56;;;10.11;94.32
2339;BME280;1180;51.438;6.978;2024-01-06T01:46:33;99014.31;;;10.01;94.40
2339;BME280;1180;51.438;6.978;2024-01-06T01:49:00;99021.69;;;9.94;94.46
2339;BME280;1180;51.438;6.978;2024-01-06T01:51:28;99022.84;;;9.90;95.10
2339;BME280;1180;51.438;6.978;2024-01-06T01:53:54;99023.78;;;10.01;94.44
2339;BME280;1180;51.438;6.978;2024-01-06T01:56:20;99021.91;;;10.03;94.42
2339;BME280;1180;51.438;6.978;2024-01-06T01:58:49;99015.38;;;10.10;93.78
2339;BME280;1180;51.438;6.978;2024-01-06T02:01:15;99021.91;;;10.03;94.20
2339;BME280;1180;51.438;6.978;2024-01-06T02:03:41;99021.66;;;10.06;94.58
2339;BME280;1180;51.438;6.978;2024-01-06T02:06:09;99022.38;;;9.96;94.59
2339;BME280;1180;51.438;6.978;2024-01-06T02:08:34;99025.03;;;10.06;94.60
2339;BME280;1180;51.438;6.978;2024-01-06T02:10:59;99025.03;;;10.06;94.71
2339;BME280;1180;51.438;6.978;2024-01-06T02:13:33;99033.31;;;10.10;94.59
2339;BME280;1180;51.438;6.978;2024-01-06T02:15:59;99029.00;;;10.10;94.48
2339;BME280;1180;51.438;6.978;2024-01-06T02:18:24;99030.28;;;10.05;94.74
2339;BME280;1180;51.438;6.978;2024-01-06T02:20:51;99029.94;;;10.09;94.93
2339;BME280;1180;51.438;6.978;2024-01-06T02:23:18;99037.16;;;10.16;94.54
2339;BME280;1180;51.438;6.978;2024-01-06T02:25:43;99035.19;;;10.08;94.53
2339;BME280;1180;51.438;6.978;2024-01-06T02:28:08;99042.75;;;10.09;94.93
2339;BME280;1180;51.438;6.978;2024-01-06T02:30:34;99044.75;;;10.06;93.52
2339;BME280;1180;51.438;6.978;2024-01-06T02:32:59;99047.66;;;10.13;93.09
2339;BME280;1180;51.438;6.978;2024-01-06T02:35:25;99051.97;;;10.01;93.39
2339;BME280;1180;51.438;6.978;2024-01-06T02:37:50;99057.78;;;10.03;93.92
2339;BME280;1180;51.438;6.978;2024-01-06T02:40:15;99057.91;;;10.01;93.85
2339;BME280;1180;51.438;6.978;2024-01-06T02:42:41;99062.78;;;10.04;93.83
2339;BME280;1180;51.438;6.978;2024-01-06T02:45:07;99063.03;;;10.01;93.64
2339;BME280;1180;51.438;6.978;2024-01-06T02:47:33;99070.59;;;10.03;93.70
2339;BME280;1180;51.438;6.978;2024-01-06T02:49:59;99075.28;;;9.97;93.30
2339;BME280;1180;51.438;6.978;2024-01-06T02:52:24;99073.97;;;9.80;93.93
2339;BME280;1180;51.438;6.978;2024-01-06T02:54:49;99072.13;;;9.82;94.43
2339;BME280;1180;51.438;6.978;2024-01-06T02:57:15;99076.78;;;9.89;94.55
2339;BME280;1180;51.438;6.978;2024-01-06T02:59:40;99077.34;;;9.92;94.27
2339;BME280;1180;51.438;6.978;2024-01-06T03:02:08;99086.09;;;9.90;94.42
2339;BME280;1180;51.438;6.978;2024-01-06T03:04:34;99094.16;;;9.96;93.76
2339;BME280;1180;51.438;6.978;2024-01-06T03:06:59;99096.34;;;10.01;93.43
2339;BME280;1180;51.438;6.978;2024-01-06T03:09:25;99096.94;;;10.05;92.89
2339;BME280;1180;51.438;6.978;2024-01-06T03:11:50;99100.91;;;9.97;92.88
2339;BME280;1180;51.438;6.978;2024-01-06T03:14:15;99104.41;;;9.96;92.91
2339;BME280;1180;51.438;6.978;2024-01-06T03:16:41;99108.00;;;9.94;92.65
2339;BME280;1180;51.438;6.978;2024-01-06T03:19:06;99100.63;;;9.78;92.79
2339;BME280;1180;51.438;6.978;2024-01-06T03:21:31;99098.28;;;9.63;93.30
2339;BME280;1180;51.438;6.978;2024-01-06T03:23:57;99112.13;;;9.61;93.57
2339;BME280;1180;51.438;6.978;2024-01-06T03:26:22;99105.13;;;9.51;93.71
2339;BME280;1180;51.438;6.978;2024-01-06T03:28:49;99109.16;;;9.43;92.53
2339;BME280;1180;51.438;6.978;2024-01-06T03:31:15;99119.50;;;9.05;94.58
2339;BME280;1180;51.438;6.978;2024-01-06T03:33:40;99116.34;;;8.77;96.06
2339;BME280;1180;51.438;6.978;2024-01-06T03:36:06;99127.81;;;8.59;95.60
2339;BME280;1180;51.438;6.978;2024-01-06T03:38:32;99142.97;;;8.49;93.06
2339;BME280;1180;51.438;6.978;2024-01-06T03:40:57;99143.59;;;8.39;92.85
2339;BME280;1180;51.438;6.978;2024-01-06T03:43:23;99143.22;;;8.33;92.15
2339;BME280;1180;51.438;6.978;2024-01-06T03:45:48;99149.84;;;8.09;93.03
2339;BME280;1180;51.438;6.978;2024-01-06T03:48:14;99152.50;;;8.08;92.44
2339;BME280;1180;51.438;6.978;2024-01-06T03:50:39;99156.78;;;8.20;91.07
2339;BME280;1180;51.438;6.978;2024-01-06T03:53:04;99155.78;;;8.36;89.21
2339;BME280;1180;51.438;6.978;2024-01-06T03:55:30;99158.84;;;8.54;89.09
2339;BME280;1180;51.438;6.978;2024-01-06T03:57:55;99168.91;;;8.81;88.05
2339;BME280;1180;51.438;6.978;2024-01-06T04:00:21;99172.13;;;8.72;86.74
2339;BME280;1180;51.438;6.978;2024-01-06T04:02:46;99175.09;;;8.66;86.98
2339;BME280;1180;51.438;6.978;2024-01-06T04:05:12;99177.94;;;8.48;88.64
2339;BME280;1180;51.438;6.978;2024-01-06T04:07:37;99177.44;;;8.69;88.27
2339;BME280;1180;51.438;6.978;2024-01-06T04:10:03;99182.66;;;8.67;87.90
2339;BME280;1180;51.438;6.978;2024-01-06T04:12:28;99179.41;;;8.90;87.59
2339;BME280;1180;51.438;6.978;2024-01-06T04:14:53;99179.59;;;9.00;86.68
2339;BME280;1180;51.438;6.978;2024-01-06T04:17:19;99177.03;;;9.00;86.29
2339;BME280;1180;51.438;6.978;2024-01-06T04:19:44;99180.19;;;8.79;85.86
2339;BME280;1180;51.438;6.978;2024-01-06T04:22:09;99179.53;;;8.88;86.53
2339;BME280;1180;51.438;6.978;2024-01-06T04:24:35;99182.84;;;8.77;85.46
2339;BME280;1180;51.438;6.978;2024-01-06T04:27:04;99179.97;;;8.82;85.52
2339;BME280;1180;51.438;6.978;2024-01-06T04:29:29;99187.25;;;8.62;85.77
2339;BME280;1180;51.438;6.978;2024-01-06T04:31:55;99178.16;;;8.45;86.21
2339;BME280;1180;51.438;6.978;2024-01-06T04:34:20;99181.34;;;8.36;87.34
2339;BME280;1180;51.438;6.978;2024-01-06T04:36:46;99187.47;;;8.59;87.65
2339;BME280;1180;51.438;6.978;2024-01-06T04:39:11;99189.81;;;8.75;86.75
2339;BME280;1180;51.438;6.978;2024-01-06T04:41:39;99194.72;;;8.65;86.27
2339;BME280;1180;51.438;6.978;2024-01-06T04:44:08;99190.53;;;8.64;86.64
2339;BME280;1180;51.438;6.978;2024-01-06T04:46:33;99191.97;;;8.56;86.62
2339;BME280;1180;51.438;6.978;2024-01-06T04:49:01;99189.22;;;8.33;87.57
2339;BME280;1180;51.438;6.978;2024-01-06T04:51:27;99190.84;;;8.34;87.64
2339;BME280;1180;51.438;6.978;2024-01-06T04:53:52;99193.94;;;8.52;87.21
2339;BME280;1180;51.438;6.978;2024-01-06T04:56:17;99187.75;;;8.67;86.35
2339;BME280;1180;51.438;6.978;2024-01-06T04:58:43;99192.91;;;8.55;86.11
2339;BME280;1180;51.438;6.978;2024-01-06T05:01:08;99196.56;;;8.37;86.65
2339;BME280;1180;51.438;6.978;2024-01-06T05:03:34;99199.06;;;8.52;86.38
2339;BME280;1180;51.438;6.978;2024-01-06T05:05:59;99201.78;;;8.49;85.19
2339;BME280;1180;51.438;6.978;2024-01-06T05:08:24;99204.56;;;8.46;86.29
2339;BME280;1180;51.438;6.978;2024-01-06T05:10:52;99200.78;;;8.51;86.48
2339;BME280;1180;51.438;6.978;2024-01-06T05:13:18;99207.53;;;8.52;86.36
2339;BME280;1180;51.438;6.978;2024-01-06T05:15:44;99206.19;;;8.60;86.76
2339;BME280;1180;51.438;6.978;2024-01-06T05:18:09;99216.19;;;8.76;85.61
2339;BME280;1180;51.438;6.978;2024-01-06T05:20:34;99217.44;;;8.70;85.05
2339;BME280;1180;51.438;6.978;2024-01-06T05:23:00;99218.88;;;8.61;85.23
2339;BME280;1180;51.438;6.978;2024-01-06T05:25:25;99219.59;;;8.63;84.96
2339;BME280;1180;51.438;6.978;2024-01-06T05:27:51;99225.84;;;8.59;85.35
2339;BME280;1180;51.438;6.978;2024-01-06T05:30:16;99225.53;;;8.64;84.28
2339;BME280;1180;51.438;6.978;2024-01-06T05:32:43;99229.94;;;8.62;84.55
2339;BME280;1180;51.438;6.978;2024-01-06T05:35:09;99223.91;;;8.50;84.73
2339;BME280;1180;51.438;6.978;2024-01-06T05:37:34;99236.03;;;8.46;85.03
2339;BME280;1180;51.438;6.978;2024-01-06T05:39:59;99231.22;;;8.16;86.04
2339;BME280;1180;51.438;6.978;2024-01-06T05:42:27;99230.00;;;8.21;86.41
2339;BME280;1180;51.438;6.978;2024-01-06T05:44:53;99230.84;;;8.48;86.30
2339;BME280;1180;51.438;6.978;2024-01-06T05:47:19;99237.38;;;8.39;86.01
2339;BME280;1180;51.438;6.978;2024-01-06T05:49:45;99244.13;;;8.40;85.67
2339;BME280;1180;51.438;6.978;2024-01-06T05:52:10;99243.50;;;8.36;85.83
2339;BME280;1180;51.438;6.978;2024-01-06T05:54:36;99250.72;;;8.04;86.66
2339;BME280;1180;51.438;6.978;2024-01-06T05:57:02;99252.97;;;8.08;88.04
2339;BME280;1180;51.438;6.978;2024-01-06T05:59:28;99250.94;;;8.27;87.48
2339;BME280;1180;51.438;6.978;2024-01-06T06:01:54;99260.59;;;8.49;86.19
2339;BME280;1180;51.438;6.978;2024-01-06T06:04:19;99254.84;;;8.45;85.54
2339;BME280;1180;51.438;6.978;2024-01-06T06:06:45;99260.09;;;8.57;85.28
2339;BME280;1180;51.438;6.978;2024-01-06T06:09:10;99263.97;;;8.75;84.63
2339;BME280;1180;51.438;6.978;2024-01-06T06:11:36;99262.06;;;8.66;84.65
2339;BME280;1180;51.438;6.978;2024-01-06T06:14:01;99268.69;;;8.56;85.21
2339;BME280;1180;51.438;6.978;2024-01-06T06:16:28;99273.28;;;8.63;85.52
2339;BME280;1180;51.438;6.978;2024-01-06T06:18:54;99279.31;;;8.62;83.94
2339;BME280;1180;51.438;6.978;2024-01-06T06:21:20;99278.69;;;8.59;82.89
2339;BME280;1180;51.438;6.978;2024-01-06T06:23:46;99280.03;;;8.64;84.20
2339;BME280;1180;51.438;6.978;2024-01-06T06:26:11;99285.66;;;8.70;83.37
2339;BME280;1180;51.438;6.978;2024-01-06T06:28:58;99295.88;;;8.57;83.59
2339;BME280;1180;51.438;6.978;2024-01-06T06:31:22;99289.66;;;8.74;83.20
2339;BME280;1180;51.438;6.978;2024-01-06T06:33:48;99293.97;;;8.73;83.20
2339;BME280;1180;51.438;6.978;2024-01-06T06:36:13;99312.78;;;8.72;82.99
2339;BME280;1180;51.438;6.978;2024-01-06T06:38:39;99313.38;;;8.76;83.03
2339;BME280;1180;51.438;6.978;2024-01-06T06:41:04;99320.88;;;8.79;83.27
2339;BME280;1180;51.438;6.978;2024-01-06T06:43:30;99319.22;;;8.52;83.61
2339;BME280;1180;51.438;6.978;2024-01-06T06:45:55;99331.81;;;8.68;83.79
2339;BME280;1180;51.438;6.978;2024-01-06T06:48:21;99330.75;;;8.58;83.56
2339;BME280;1180;51.438;6.978;2024-01-06T06:50:46;99330.41;;;8.36;84.71
2339;BME280;1180;51.438;6.978;2024-01-06T06:53:12;99333.69;;;8.38;85.50
2339;BME280;1180;51.438;6.978;2024-01-06T06:55:38;99338.06;;;8.36;85.62
2339;BME280;1180;51.438;6.978;2024-01-06T06:58:04;99336.56;;;8.47;85.88
2339;BME280;1180;51.438;6.978;2024-01-06T07:00:30;99347.28;;;8.39;85.51
2339;BME280;1180;51.438;6.978;2024-01-06T07:02:55;99346.06;;;8.32;86.17
2339;BME280;1180;51.438;6.978;2024-01-06T07:05:21;99355.28;;;8.47;86.66
2339;BME280;1180;51.438;6.978;2024-01-06T07:07:46;99357.75;;;8.49;85.69
2339;BME280;1180;51.438;6.978;2024-01-06T07:10:12;99362.28;;;8.58;85.82
2339;BME280;1180;51.438;6.978;2024-01-06T07:12:38;99375.50;;;8.65;84.37
2339;BME280;1180;51.438;6.978;2024-01-06T07:15:03;99373.47;;;8.43;84.67
2339;BME280;1180;51.438;6.978;2024-01-06T07:17:29;99385.06;;;8.21;86.24
2339;BME280;1180;51.438;6.978;2024-01-06T07:19:54;99384.84;;;8.11;86.65
2339;BME280;1180;51.438;6.978;2024-01-06T07:22:20;99388.09;;;7.86;88.11
2339;BME280;1180;51.438;6.978;2024-01-06T07:24:45;99394.59;;;7.77;89.27
2339;BME280;1180;51.438;6.978;2024-01-06T07:27:11;99396.56;;;7.86;88.87
2339;BME280;1180;51.438;6.978;2024-01-06T07:29:37;99391.44;;;8.01;88.33
2339;BME280;1180;51.438;6.978;2024-01-06T07:32:04;99400.63;;;7.76;88.76
2339;BME280;1180;51.438;6.978;2024-01-06T07:34:29;99403.97;;;7.91;88.97
2339;BME280;1180;51.438;6.978;2024-01-06T07:36:55;99407.72;;;7.85;89.46
2339;BME280;1180;51.438;6.978;2024-01-06T07:39:20;99409.31;;;7.59;91.36
2339;BME280;1180;51.438;6.978;2024-01-06T07:41:46;99414.34;;;7.31;93.29
2339;BME280;1180;51.438;6.978;2024-01-06T07:44:12;99421.16;;;7.31;94.31
2339;BME280;1180;51.438;6.978;2024-01-06T07:46:39;99421.06;;;7.18;95.58
2339;BME280;1180;51.438;6.978;2024-01-06T07:49:05;99423.34;;;7.37;95.07
2339;BME280;1180;51.438;6.978;2024-01-06T07:51:32;99438.13;;;7.32;93.73
2339;BME280;1180;51.438;6.978;2024-01-06T07:54:00;99435.56;;;7.17;94.58
2339;BME280;1180;51.438;6.978;2024-01-06T07:56:25;99437.63;;;7.25;95.26
2339;BME280;1180;51.438;6.978;2024-01-06T07:58:51;99443.84;;;7.21;94.83
2339;BME280;1180;51.438;6.978;2024-01-06T08:01:18;99450.47;;;7.09;95.10
2339;BME280;1180;51.438;6.978;2024-01-06T08:03:43;99459.31;;;7.03;96.25
2339;BME280;1180;51.438;6.978;2024-01-06T08:06:09;99461.41;;;7.11;95.55
2339;BME280;1180;51.438;6.978;2024-01-06T08:08:35;99464.41;;;7.03;95.60
2339;BME280;1180;51.438;6.978;2024-01-06T08:11:00;99469.34;;;7.06;94.58
2339;BME280;1180;51.438;6.978;2024-01-06T08:13:26;99475.72;;;7.14;93.96
2339;BME280;1180;51.438;6.978;2024-01-06T08:15:52;99470.59;;;6.99;95.06
2339;BME280;1180;51.438;6.978;2024-01-06T08:18:20;99490.09;;;7.00;95.39
2339;BME280;1180;51.438;6.978;2024-01-06T08:20:46;99484.31;;;6.82;96.13
2339;BME280;1180;51.438;6.978;2024-01-06T08:23:12;99490.00;;;6.71;98.47
2339;BME280;1180;51.438;6.978;2024-01-06T08:25:37;99484.78;;;6.89;97.53
2339;BME280;1180;51.438;6.978;2024-01-06T08:28:03;99494.78;;;6.92;96.27
2339;BME280;1180;51.438;6.978;2024-01-06T08:30:28;99497.66;;;7.02;96.12
2339;BME280;1180;51.438;6.978;2024-01-06T08:32:53;99503.06;;;7.12;95.78
2339;BME280;1180;51.438;6.978;2024-01-06T08:35:19;99504.53;;;7.16;95.15
2339;BME280;1180;51.438;6.978;2024-01-06T08:37:45;99509.91;;;6.64;96.73
2339;BME280;1180;51.438;6.978;2024-01-06T08:40:10;99513.38;;;6.47;100.00
2339;BME280;1180;51.438;6.978;2024-01-06T08:42:36;99516.59;;;6.67;99.06
2339;BME280;1180;51.438;6.978;2024-01-06T08:45:01;99521.34;;;6.57;100.00
2339;BME280;1180;51.438;6.978;2024-01-06T08:47:27;99523.81;;;7.05;99.42
2339;BME280;1180;51.438;6.978;2024-01-06T08:49:53;99529.44;;;7.41;96.46
2339;BME280;1180;51.438;6.978;2024-01-06T08:52:18;99532.16;;;7.23;95.50
2339;BME280;1180;51.438;6.978;2024-01-06T08:54:44;99534.06;;;7.20;95.33
2339;BME280;1180;51.438;6.978;2024-01-06T08:57:09;99543.28;;;7.22;94.84
2339;BME280;1180;51.438;6.978;2024-01-06T08:59:35;99541.28;;;6.97;95.28
2339;BME280;1180;51.438;6.978;2024-01-06T09:02:01;99562.25;;;7.02;95.95
2339;BME280;1180;51.438;6.978;2024-01-06T09:04:26;99560.16;;;7.09;95.13
2339;BME280;1180;51.438;6.978;2024-01-06T09:06:52;99564.50;;;6.92;96.01
2339;BME280;1180;51.438;6.978;2024-01-06T09:09:17;99568.69;;;6.93;95.13
2339;BME280;1180;51.438;6.978;2024-01-06T09:11:43;99567.56;;;6.83;95.10
2339;BME280;1180;51.438;6.978;2024-01-06T09:14:09;99572.97;;;6.77;95.33
2339;BME280;1180;51.438;6.978;2024-01-06T09:16:38;99576.69;;;6.71;95.96
2339;BME280;1180;51.438;6.978;2024-01-06T09:19:04;99584.16;;;6.90;95.10
2339;BME280;1180;51.438;6.978;2024-01-06T09:21:29;99588.97;;;7.11;93.25
2339;BME280;1180;51.438;6.978;2024-01-06T09:23:55;99589.44;;;7.34;92.87
2339;BME280;1180;51.438;6.978;2024-01-06T09:26:20;99593.03;;;7.46;91.56
2339;BME280;1180;51.438;6.978;2024-01-06T09:28:45;99589.75;;;7.13;91.93
2339;BME280;1180;51.438;6.978;2024-01-06T09:31:11;99591.56;;;6.79;93.37
2339;BME280;1180;51.438;6.978;2024-01-06T09:33:36;99603.50;;;6.78;94.97
2339;BME280;1180;51.438;6.978;2024-01-06T09:36:02;99603.00;;;6.72;95.88
2339;BME280;1180;51.438;6.978;2024-01-06T09:38:27;99605.47;;;6.73;95.74
2339;BME280;1180;51.438;6.978;2024-01-06T09:40:53;99607.94;;;6.91;94.18
2339;BME280;1180;51.438;6.978;2024-01-06T09:43:19;99611.13;;;7.11;93.09
2339;BME280;1180;51.438;6.978;2024-01-06T09:45:51;99615.09;;;7.00;93.29
2339;BME280;1180;51.438;6.978;2024-01-06T09:48:29;99609.72;;;7.05;92.74
2339;BME280;1180;51.438;6.978;2024-01-06T09:51:00;99619.75;;;7.08;92.19
2339;BME280;1180;51.438;6.978;2024-01-06T09:53:34;99620.41;;;7.28;92.65
2339;BME280;1180;51.438;6.978;2024-01-06T09:56:02;99632.75;;;7.35;91.82
2339;BME280;1180;51.438;6.978;2024-01-06T09:58:28;99629.91;;;7.40;91.48
2339;BME280;1180;51.438;6.978;2024-01-06T10:00:59;99633.13;;;7.44;91.42
2339;BME280;1180;51.438;6.978;2024-01-06T10:03:25;99634.03;;;7.43;90.79
2339;BME280;1180;51.438;6.978;2024-01-06T10:05:51;99643.00;;;7.50;91.33
2339;BME280;1180;51.438;6.978;2024-01-06T10:08:17;99644.59;;;7.36;91.26
2339;BME280;1180;51.438;6.978;2024-01-06T10:10:44;99648.16;;;6.86;91.50
2339;BME280;1180;51.438;6.978;2024-01-06T10:13:10;99648.75;;;6.91;93.51
2339;BME280;1180;51.438;6.978;2024-01-06T10:15:36;99647.25;;;6.87;93.22
2339;BME280;1180;51.438;6.978;2024-01-06T10:18:02;99653.44;;;6.83;92.72
2339;BME280;1180;51.438;6.978;2024-01-06T10:20:28;99653.84;;;6.91;92.83
2339;BME280;1180;51.438;6.978;2024-01-06T10:22:54;99660.84;;;6.87;92.72
2339;BME280;1180;51.438;6.978;2024-01-06T10:25:23;99663.88;;;6.78;91.77
2339;BME280;1180;51.438;6.978;2024-01-06T10:27:49;99664.13;;;6.73;92.43
2339;BME280;1180;51.438;6.978;2024-01-06T10:30:14;99665.09;;;6.71;91.49
2339;BME280;1180;51.438;6.978;2024-01-06T10:32:43;99663.44;;;6.54;93.11
2339;BME280;1180;51.438;6.978;2024-01-06T10:35:09;99664.91;;;6.58;92.52
2339;BME280;1180;51.438;6.978;2024-01-06T10:37:35;99666.47;;;6.44;93.01
2339;BME280;1180;51.438;6.978;2024-01-06T10:40:15;99663.59;;;6.50;94.08
2339;BME280;1180;51.438;6.978;2024-01-06T10:42:44;99661.88;;;6.51;94.48
2339;BME280;1180;51.438;6.978;2024-01-06T10:45:14;99668.94;;;6.62;93.66
2339;BME280;1180;51.438;6.978;2024-01-06T10:47:43;99667.31;;;6.77;93.21
2339;BME280;1180;51.438;6.978;2024-01-06T10:50:11;99676.72;;;6.43;94.24
2339;BME280;1180;51.438;6.978;2024-01-06T10:52:38;99674.81;;;6.30;95.27
2339;BME280;1180;51.438;6.978;2024-01-06T10:55:05;99675.41;;;6.35;95.09
2339;BME280;1180;51.438;6.978;2024-01-06T10:57:31;99679.22;;;6.44;95.36
2339;BME280;1180;51.438;6.978;2024-01-06T10:59:59;99670.25;;;6.19;95.23
2339;BME280;1180;51.438;6.978;2024-01-06T11:02:26;99671.84;;;6.22;95.57
2339;BME280;1180;51.438;6.978;2024-01-06T11:04:52;99672.69;;;6.05;97.33
2339;BME280;1180;51.438;6.978;2024-01-06T11:07:20;99671.16;;;6.18;96.42
2339;BME280;1180;51.438;6.978;2024-01-06T11:12:18;99677.19;;;6.51;95.13
2339;BME280;1180;51.438;6.978;2024-01-06T11:14:44;99675.34;;;6.37;93.80
2339;BME280;1180;51.438;6.978;2024-01-06T11:17:11;99675.97;;;6.07;94.68
2339;BME280;1180;51.438;6.978;2024-01-06T11:22:24;99668.91;;;5.95;95.45
2339;BME280;1180;51.438;6.978;2024-01-06T11:24:53;99678.13;;;5.97;95.98
2339;BME280;1180;51.438;6.978;2024-01-06T11:27:27;99677.75;;;5.87;98.22
2339;BME280;1180;51.438;6.978;2024-01-06T11:29:57;99681.13;;;5.88;97.69
2339;BME280;1180;51.438;6.978;2024-01-06T11:32:30;99675.84;;;5.73;98.77
2339;BME280;1180;51.438;6.978;2024-01-06T11:35:15;99669.50;;;6.17;98.47
2339;BME280;1180;51.438;6.978;2024-01-06T11:45:28;99686.44;;;6.18;97.11
2339;BME280;1180;51.438;6.978;2024-01-06T11:48:02;99682.41;;;6.14;96.15
2339;BME280;1180;51.438;6.978;2024-01-06T11:50:32;99679.09;;;6.30;98.63
2339;BME280;1180;51.438;6.978;2024-01-06T11:52:59;99672.31;;;6.29;96.49
2339;BME280;1180;51.438;6.978;2024-01-06T11:55:27;99689.56;;;6.24;95.49
2339;BME280;1180;51.438;6.978;2024-01-06T11:57:56;99679.09;;;6.30;96.03
2339;BME280;1180;51.438;6.978;2024-01-06T12:00:23;99688.72;;;6.07;95.39
2339;BME280;1180;51.438;6.978;2024-01-06T12:02:49;99689.03;;;5.64;97.38
2339;BME280;1180;51.438;6.978;2024-01-06T12:05:18;99690.47;;;5.70;97.82
2339;BME280;1180;51.438;6.978;2024-01-06T12:08:02;99692.03;;;5.72;98.47
2339;BME280;1180;51.438;6.978;2024-01-06T12:10:31;99688.25;;;5.44;99.41
2339;BME280;1180;51.438;6.978;2024-01-06T12:13:02;99684.78;;;5.64;98.91
2339;BME280;1180;51.438;6.978;2024-01-06T12:15:30;99690.91;;;5.60;97.88
2339;BME280;1180;51.438;6.978;2024-01-06T12:17:56;99697.53;;;5.45;98.73
2339;BME280;1180;51.438;6.978;2024-01-06T12:20:23;99698.13;;;5.33;98.29
2339;BME280;1180;51.438;6.978;2024-01-06T12:22:51;99704.28;;;5.46;98.21
2339;BME280;1180;51.438;6.978;2024-01-06T12:25:17;99712.00;;;5.45;97.43
2339;BME280;1180;51.438;6.978;2024-01-06T12:27:43;99705.69;;;5.34;97.33
2339;BME280;1180;51.438;6.978;2024-01-06T12:30:20;99703.91;;;5.37;97.18
2339;BME280;1180;51.438;6.978;2024-01-06T12:32:47;99706.66;;;5.13;97.36
2339;BME280;1180;51.438;6.978;2024-01-06T12:35:19;99708.16;;;5.36;97.94
2339;BME280;1180;51.438;6.978;2024-01-06T12:37:45;99698.31;;;5.47;97.25
2339;BME280;1180;51.438;6.978;2024-01-06T12:40:12;99706.47;;;5.54;95.95
2339;BME280;1180;51.438;6.978;2024-01-06T12:42:38;99709.66;;;5.40;96.44
2339;BME280;1180;51.438;6.978;2024-01-06T12:45:05;99718.00;;;5.25;96.03
2339;BME280;1180;51.438;6.978;2024-01-06T12:47:32;99717.72;;;5.31;95.98
2339;BME280;1180;51.438;6.978;2024-01-06T12:49:57;99716.34;;;5.24;95.54
2339;BME280;1180;51.438;6.978;2024-01-06T12:52:23;99714.78;;;5.58;99.84
2339;BME280;1180;51.438;6.978;2024-01-06T12:54:49;99716.94;;;5.48;95.04
2339;BME280;1180;51.438;6.978;2024-01-06T12:57:15;99719.38;;;5.32;93.14
2339;BME280;1180;51.438;6.978;2024-01-06T12:59:40;99723.34;;;5.38;94.95
2339;BME280;1180;51.438;6.978;2024-01-06T13:05:27;99725.69;;;4.85;96.96
2339;BME280;1180;51.438;6.978;2024-01-06T13:07:53;99731.75;;;4.82;98.37
2339;BME280;1180;51.438;6.978;2024-01-06T13:10:19;99718.75;;;4.88;98.35
2339;BME280;1180;51.438;6.978;2024-01-06T13:12:44;99733.13;;;5.09;97.38
2339;BME280;1180;51.438;6.978;2024-01-06T13:15:10;99727.34;;;5.05;96.67
2339;BME280;1180;51.438;6.978;2024-01-06T13:17:39;99738.09;;;4.72;97.79
2339;BME280;1180;51.438;6.978;2024-01-06T13:20:05;99740.28;;;4.60;100.00
2339;BME280;1180;51.438;6.978;2024-01-06T13:22:31;99739.22;;;4.45;100.00
2339;BME280;1180;51.438;6.978;2024-01-06T13:24:59;99741.81;;;4.65;100.00
2339;BME280;1180;51.438;6.978;2024-01-06T13:27:25;99747.47;;;4.71;100.00
2339;BME280;1180;51.438;6.978;2024-01-06T13:29:54;99751.78;;;4.69;99.10
2339;BME280;1180;51.438;6.978;2024-01-06T13:32:20;99756.00;;;4.89;98.75
2339;BME280;1180;51.438;6.978;2024-01-06T13:34:47;99759.34;;;4.90;99.24
2339;BME280;1180;51.438;6.978;2024-01-06T13:37:12;99758.22;;;4.97;97.78
2339;BME280;1180;51.438;6.978;2024-01-06T13:39:38;99759.63;;;4.84;97.79
2339;BME280;1180;51.438;6.978;2024-01-06T13:42:04;99760.38;;;4.86;99.12
2339;BME280;1180;51.438;6.978;2024-01-06T13:44:30;99756.63;;;5.14;97.04